Time;durP1;ratioP1;P1;durP2;ratioP2;P2;SDS_P1;SDS_P2;PMS_P1;PMS_P2;Temp;Humidity;BMP_temperature;BMP_pressure;BME280_temperature;BME280_humidity;BME280_pressure;Samples;Min_cycle;Max_cycle;Signal;HPM_P1;HPM_P2
2023/06/07 00:02:11;;;;;;;7.95;3.63;;;;;;;15.38;94.62;97410.13;6184241;23;20369;-73
2023/06/07 00:04:39;;;;;;;4.37;3.00;;;;;;;15.33;95.51;97415.50;6184512;23;20423;-74
2023/06/07 00:07:05;;;;;;;5.30;2.88;;;;;;;15.30;96.20;97418.72;6184159;23;20370;-74
2023/06/07 00:09:31;;;;;;;5.10;3.43;;;;;;;15.31;96.57;97411.53;6184360;23;20370;-74
2023/06/07 00:11:58;;;;;;;3.63;2.83;;;;;;;15.31;96.58;97406.19;6184110;23;20373;-73
2023/06/07 00:14:24;;;;;;;5.47;3.45;;;;;;;15.27;96.76;97415.81;6184223;23;20388;-73
2023/06/07 00:16:53;;;;;;;6.35;3.35;;;;;;;15.32;96.85;97408.59;6157813;23;20898;-74
2023/06/07 00:19:21;;;;;;;5.93;3.30;;;;;;;15.20;96.90;97410.81;6184211;23;20690;-73
2023/06/07 00:21:48;;;;;;;5.32;3.35;;;;;;;15.14;97.57;97408.47;6183912;23;20368;-73
2023/06/07 00:24:15;;;;;;;4.32;3.35;;;;;;;15.15;98.48;97415.41;6184184;23;20377;-74
2023/06/07 00:26:41;;;;;;;5.93;3.95;;;;;;;15.03;98.71;97405.09;6183618;23;20369;-74
2023/06/07 00:29:07;;;;;;;4.85;3.13;;;;;;;14.94;100.00;97406.75;6183681;23;20384;-73
2023/06/07 00:31:33;;;;;;;6.28;3.30;;;;;;;14.94;100.00;97410.22;6183914;23;20369;-73
2023/06/07 00:34:01;;;;;;;4.20;3.00;;;;;;;14.87;100.00;97403.63;6183686;23;20690;-74
2023/06/07 00:36:28;;;;;;;3.45;2.80;;;;;;;14.84;100.00;97404.97;6183827;23;20429;-73
2023/06/07 00:38:54;;;;;;;5.90;3.40;;;;;;;14.88;100.00;97403.34;6183859;23;20373;-73
2023/06/07 00:41:20;;;;;;;6.78;3.22;;;;;;;14.82;100.00;97404.44;6183775;23;20698;-74
2023/06/07 00:43:47;;;;;;;6.65;3.60;;;;;;;14.85;100.00;97403.09;6183694;23;20376;-73
2023/06/07 00:46:14;;;;;;;8.18;3.85;;;;;;;14.86;100.00;97404.69;6183782;23;20372;-73
2023/06/07 00:48:40;;;;;;;5.73;3.37;;;;;;;14.79;100.00;97409.53;6183788;23;20817;-73
2023/06/07 00:51:08;;;;;;;6.05;3.90;;;;;;;14.75;100.00;97411.94;6183569;23;20365;-73
2023/06/07 00:53:35;;;;;;;3.65;2.90;;;;;;;14.73;100.00;97405.31;6183680;23;20441;-73
2023/06/07 00:56:02;;;;;;;7.00;3.40;;;;;;;14.82;100.00;97404.44;6183104;23;20385;-74
2023/06/07 00:58:28;;;;;;;3.85;2.90;;;;;;;14.68;100.00;97408.78;6183684;23;20376;-73
2023/06/07 01:00:57;;;;;;;4.10;2.72;;;;;;;14.62;100.00;97404.56;6183321;23;20457;-74
2023/06/07 01:03:24;;;;;;;5.33;3.27;;;;;;;14.61;100.00;97406.44;6183294;23;20912;-74
2023/06/07 01:05:50;;;;;;;5.80;3.88;;;;;;;14.67;100.00;97407.19;6183127;23;20361;-74
2023/06/07 01:08:18;;;;;;;6.27;3.80;;;;;;;14.61;100.00;97410.97;6183383;23;20479;-73
2023/06/07 01:10:45;;;;;;;5.00;3.15;;;;;;;14.56;100.00;97408.34;6183396;23;20675;-73
2023/06/07 01:13:13;;;;;;;6.45;3.78;;;;;;;14.63;100.00;97408.84;6183081;23;20362;-74
2023/06/07 01:15:40;;;;;;;6.45;3.70;;;;;;;14.53;100.00;97407.03;6183389;23;20446;-74
2023/06/07 01:18:09;;;;;;;5.72;3.58;;;;;;;14.48;100.00;97407.06;6183131;23;20821;-74
2023/06/07 01:20:37;;;;;;;6.93;3.88;;;;;;;14.47;100.00;97404.66;6183046;23;20370;-74
2023/06/07 01:23:07;;;;;;;6.53;3.40;;;;;;;14.53;100.00;97411.56;6182887;23;20472;-74
2023/06/07 01:25:35;;;;;;;5.53;3.80;;;;;;;14.41;100.00;97395.91;6183010;23;20369;-74
2023/06/07 01:28:02;;;;;;;6.22;3.17;;;;;;;14.32;100.00;97403.66;6183251;23;20424;-74
2023/06/07 01:30:31;;;;;;;7.53;4.30;;;;;;;14.29;100.00;97406.84;6183114;23;20361;-74
2023/06/07 01:32:58;;;;;;;7.63;3.75;;;;;;;14.28;100.00;97404.50;6182907;23;20435;-74
2023/06/07 01:35:25;;;;;;;4.72;3.50;;;;;;;14.27;100.00;97403.69;6182471;23;20389;-74
2023/06/07 01:37:52;;;;;;;4.35;3.33;;;;;;;14.22;100.00;97401.03;6183004;23;20457;-74
2023/06/07 01:40:20;;;;;;;5.50;3.63;;;;;;;14.24;100.00;97403.41;6182875;23;20424;-74
2023/06/07 01:42:49;;;;;;;5.10;3.42;;;;;;;14.21;100.00;97403.97;6182692;23;20365;-74
2023/06/07 01:45:16;;;;;;;5.63;3.45;;;;;;;14.18;100.00;97399.19;6182563;23;20365;-74
2023/06/07 01:47:43;;;;;;;5.80;3.88;;;;;;;14.22;100.00;97394.91;6182763;23;20376;-74
2023/06/07 01:50:10;;;;;;;5.15;3.53;;;;;;;14.13;100.00;97397.38;6156361;23;20377;-74
2023/06/07 01:52:36;;;;;;;6.15;3.60;;;;;;;14.12;100.00;97390.44;6182628;23;20407;-74
2023/06/07 01:55:03;;;;;;;4.97;3.73;;;;;;;14.11;100.00;97396.84;6182264;23;20381;-74
2023/06/07 01:57:41;;;;;;;5.00;3.60;;;;;;;14.05;100.00;97389.94;6182456;23;20818;-74
2023/06/07 02:00:21;;;;;;;4.50;3.30;;;;;;;14.03;100.00;97396.59;6182964;23;20954;-74
2023/06/07 02:02:53;;;;;;;4.97;3.47;;;;;;;14.01;100.00;97388.88;6182658;23;20444;-74
2023/06/07 02:05:26;;;;;;;6.32;3.85;;;;;;;14.04;100.00;97393.69;6182441;23;20388;-74
2023/06/07 02:07:54;;;;;;;6.55;3.55;;;;;;;14.00;100.00;97381.16;6182599;23;20372;-74
2023/06/07 02:10:24;;;;;;;6.40;3.58;;;;;;;13.93;100.00;97389.44;6182270;23;20738;-74
2023/06/07 02:12:53;;;;;;;5.25;3.80;;;;;;;13.92;100.00;97387.84;6182330;23;20381;-73
2023/06/07 02:15:21;;;;;;;6.60;3.90;;;;;;;13.92;100.00;97378.00;6182497;23;20853;-74
2023/06/07 02:17:57;;;;;;;5.13;3.50;;;;;;;13.81;100.00;97379.13;6182645;23;20393;-74
2023/06/07 02:20:24;;;;;;;5.35;3.63;;;;;;;13.77;100.00;97380.72;6178863;23;20393;-71
2023/06/07 02:22:51;;;;;;;4.30;3.50;;;;;;;13.76;100.00;97378.31;6182314;23;20377;-71
2023/06/07 02:25:17;;;;;;;6.78;3.80;;;;;;;13.76;100.00;97379.13;6182232;23;20391;-71
2023/06/07 02:27:43;;;;;;;5.50;3.90;;;;;;;13.82;100.00;97382.59;6182631;23;20453;-71
2023/06/07 02:30:10;;;;;;;5.25;3.80;;;;;;;13.77;100.00;97380.72;6182743;23;20412;-71
2023/06/07 02:32:38;;;;;;;8.05;4.20;;;;;;;13.74;100.00;97383.94;6182712;23;20370;-70
2023/06/07 02:35:07;;;;;;;6.00;3.95;;;;;;;13.71;100.00;97383.66;6182059;23;20408;-71
2023/06/07 02:37:33;;;;;;;7.00;3.85;;;;;;;13.69;100.00;97380.47;6182410;23;20675;-71
2023/06/07 02:39:59;;;;;;;5.35;4.00;;;;;;;13.76;100.00;97384.44;6156041;23;20409;-71
2023/06/07 02:42:25;;;;;;;7.18;4.35;;;;;;;13.72;100.00;97383.41;6182334;23;20435;-71
2023/06/07 02:44:52;;;;;;;8.15;4.13;;;;;;;13.64;100.00;97391.94;6181969;23;20365;-71
2023/06/07 02:47:18;;;;;;;4.40;3.70;;;;;;;13.56;100.00;97390.63;6182419;23;20370;-71
2023/06/07 02:49:45;;;;;;;5.77;3.60;;;;;;;13.54;100.00;97392.75;6182467;23;20455;-71
2023/06/07 02:52:12;;;;;;;5.70;3.53;;;;;;;13.51;100.00;97385.31;6182729;23;20373;-71
2023/06/07 02:54:39;;;;;;;5.35;3.85;;;;;;;13.51;100.00;97390.66;6182417;23;20377;-71
2023/06/07 02:57:07;;;;;;;8.57;3.90;;;;;;;13.52;100.00;97388.78;6182334;23;20849;-71
2023/06/07 02:59:33;;;;;;;5.45;4.05;;;;;;;13.56;100.00;97393.28;6182417;23;20841;-71
2023/06/07 03:01:59;;;;;;;5.53;3.80;;;;;;;13.50;100.00;97391.72;6182237;23;20373;-70
2023/06/07 03:04:28;;;;;;;5.70;4.15;;;;;;;13.43;100.00;97388.53;6182587;23;20365;-71
2023/06/07 03:06:55;;;;;;;7.15;4.18;;;;;;;13.48;100.00;97396.50;6182050;23;20369;-70
2023/06/07 03:09:22;;;;;;;5.88;3.53;;;;;;;13.41;100.00;97390.66;6182248;23;20853;-70
2023/06/07 03:11:48;;;;;;;7.87;3.97;;;;;;;13.40;100.00;97396.22;6156177;23;20377;-70
2023/06/07 03:14:16;;;;;;;7.45;4.80;;;;;;;13.41;100.00;97395.97;6182580;23;20369;-71
2023/06/07 03:16:44;;;;;;;6.10;4.13;;;;;;;13.39;100.00;97387.47;6182030;23;20397;-70
2023/06/07 03:19:11;;;;;;;4.95;3.63;;;;;;;13.35;100.00;97390.94;6182380;23;20365;-71
2023/06/07 03:21:38;;;;;;;6.00;4.30;;;;;;;13.37;100.00;97394.13;6182101;23;20400;-71
2023/06/07 03:24:06;;;;;;;5.90;3.95;;;;;;;13.33;100.00;97398.38;6184101;23;20840;-71
2023/06/07 03:26:32;;;;;;;6.13;4.00;;;;;;;13.33;100.00;97401.03;6183807;23;20377;-71
2023/06/07 03:28:58;;;;;;;7.90;3.70;;;;;;;13.28;100.00;97398.38;6184067;23;20392;-70
2023/06/07 03:31:25;;;;;;;6.13;3.88;;;;;;;13.29;100.00;97392.00;6184107;23;20392;-71
2023/06/07 03:33:51;;;;;;;6.82;4.50;;;;;;;13.27;100.00;97399.44;6183888;23;20452;-71
2023/06/07 03:36:20;;;;;;;4.72;3.50;;;;;;;13.23;100.00;97395.75;6184003;23;21030;-71
2023/06/07 03:38:47;;;;;;;4.50;3.65;;;;;;;13.19;100.00;97398.13;6183886;23;20369;-71
2023/06/07 03:41:14;;;;;;;7.57;4.00;;;;;;;13.21;100.00;97400.53;6183987;23;20437;-71
2023/06/07 03:43:41;;;;;;;5.97;3.80;;;;;;;13.22;100.00;97394.94;6183717;23;20912;-70
2023/06/07 03:46:07;;;;;;;5.80;4.30;;;;;;;13.26;100.00;97398.66;6184868;23;20428;-71
2023/06/07 03:48:33;;;;;;;7.45;4.57;;;;;;;13.29;100.00;97403.44;6184355;23;20373;-71
2023/06/07 03:51:00;;;;;;;5.82;4.20;;;;;;;13.26;100.00;97401.31;6183797;23;20376;-71
2023/06/07 03:53:26;;;;;;;7.38;4.40;;;;;;;13.24;100.00;97405.28;6183695;23;20370;-70
2023/06/07 03:55:53;;;;;;;8.20;4.60;;;;;;;13.22;100.00;97394.94;6183506;23;20385;-71
2023/06/07 03:58:21;;;;;;;6.78;3.85;;;;;;;13.21;100.00;97401.31;6183764;23;20512;-69
2023/06/07 04:00:48;;;;;;;7.18;4.07;;;;;;;13.20;100.00;97407.69;6183979;23;20366;-71
2023/06/07 04:03:14;;;;;;;7.07;4.35;;;;;;;13.22;100.00;97407.44;6183837;23;20370;-71
2023/06/07 04:05:40;;;;;;;6.93;4.30;;;;;;;13.23;100.00;97401.84;6183461;23;20365;-71
2023/06/07 04:08:08;;;;;;;7.55;4.53;;;;;;;13.25;100.00;97397.06;6183680;23;20370;-71
2023/06/07 04:10:34;;;;;;;7.45;4.60;;;;;;;13.29;100.00;97400.00;6183807;23;20702;-71
2023/06/07 04:13:01;;;;;;;6.38;3.90;;;;;;;13.29;100.00;97403.44;6183458;23;20365;-71
2023/06/07 04:15:29;;;;;;;5.03;3.80;;;;;;;13.32;100.00;97394.91;6183339;23;20377;-71
2023/06/07 04:17:55;;;;;;;4.82;3.67;;;;;;;13.36;100.00;97400.50;6184011;23;20377;-71
2023/06/07 04:20:21;;;;;;;5.77;4.20;;;;;;;13.38;100.00;97399.16;6183735;23;20373;-71
2023/06/07 04:22:51;;;;;;;4.65;3.75;;;;;;;13.42;100.00;97408.19;6183369;23;20369;-71
2023/06/07 04:25:17;;;;;;;5.82;4.18;;;;;;;13.47;100.00;97402.06;6183415;23;20702;-70
2023/06/07 04:27:47;;;;;;;5.93;4.40;;;;;;;13.49;100.00;97407.94;6184195;23;20448;-70
2023/06/07 04:30:15;;;;;;;10.98;5.50;;;;;;;13.52;100.00;97405.53;6183318;23;20812;-71
2023/06/07 04:32:43;;;;;;;7.43;4.93;;;;;;;13.56;100.00;97406.59;6183237;23;20373;-71
2023/06/07 04:35:09;;;;;;;9.65;4.70;;;;;;;13.61;100.00;97407.66;6182590;23;20381;-71
2023/06/07 04:37:36;;;;;;;6.32;4.05;;;;;;;13.66;100.00;97404.97;6183110;23;20825;-71
2023/06/07 04:40:03;;;;;;;7.72;4.70;;;;;;;13.70;100.00;97400.69;6183280;23;20373;-71
2023/06/07 04:42:30;;;;;;;8.15;5.15;;;;;;;13.74;100.00;97399.09;6183095;23;20435;-71
2023/06/07 04:45:00;;;;;;;9.45;5.60;;;;;;;13.79;100.00;97409.72;6182940;23;20372;-71
2023/06/07 04:47:27;;;;;;;9.45;5.80;;;;;;;13.85;100.00;97411.28;6183301;23;20829;-71
2023/06/07 04:49:56;;;;;;;7.82;5.28;;;;;;;13.90;100.00;97398.00;6183075;23;20806;-71
2023/06/07 04:52:24;;;;;;;8.95;5.47;;;;;;;13.99;100.00;97406.97;6182932;23;20444;-71
2023/06/07 04:54:50;;;;;;;7.22;4.80;;;;;;;14.07;100.00;97401.09;6182683;23;20456;-71
2023/06/07 04:57:18;;;;;;;6.30;4.45;;;;;;;14.17;100.00;97405.59;6183019;23;20389;-71
2023/06/07 04:59:48;;;;;;;6.65;4.35;;;;;;;14.28;100.00;97407.91;6183045;23;20818;-71
2023/06/07 05:02:15;;;;;;;5.75;4.05;;;;;;;14.39;100.00;97410.56;6182919;23;20893;-71
2023/06/07 05:04:42;;;;;;;5.22;3.70;;;;;;;14.49;100.00;97408.66;6182755;23;20428;-71
2023/06/07 05:07:13;;;;;;;8.15;4.75;;;;;;;14.60;100.00;97409.38;6182973;23;20824;-71
2023/06/07 05:09:39;;;;;;;6.35;4.43;;;;;;;14.69;100.00;97413.84;6182927;23;20854;-71
2023/06/07 05:12:07;;;;;;;7.03;4.35;;;;;;;14.79;100.00;97420.19;6182846;23;20365;-71
2023/06/07 05:14:33;;;;;;;5.53;3.80;;;;;;;14.88;100.00;97414.00;6182755;23;20385;-71
2023/06/07 05:17:01;;;;;;;4.93;3.92;;;;;;;14.97;100.00;97416.84;6182667;23;20365;-71
2023/06/07 05:19:28;;;;;;;6.28;4.10;;;;;;;15.06;100.00;97417.84;6182777;23;20453;-71
2023/06/07 05:21:54;;;;;;;5.37;3.60;;;;;;;15.15;100.00;97418.84;6182738;23;20397;-71
2023/06/07 05:24:22;;;;;;;5.43;3.13;;;;;;;15.22;100.00;97416.66;6182585;23;20833;-71
2023/06/07 05:26:48;;;;;;;6.45;3.90;;;;;;;15.30;100.00;97424.06;6182412;23;20366;-71
2023/06/07 05:29:14;;;;;;;5.60;3.67;;;;;;;15.38;100.00;97423.47;6182544;23;20365;-71
2023/06/07 05:31:40;;;;;;;6.65;3.95;;;;;;;15.45;100.00;97423.94;6182390;23;20373;-71
2023/06/07 05:34:07;;;;;;;7.18;4.15;;;;;;;15.52;100.00;97418.25;6182538;23;20448;-71
2023/06/07 05:36:34;;;;;;;5.07;4.10;;;;;;;15.58;100.00;97419.03;6181460;23;20385;-71
2023/06/07 05:39:01;;;;;;;5.30;3.50;;;;;;;15.64;100.00;97421.34;6182370;23;20373;-71
2023/06/07 05:41:28;;;;;;;5.05;3.70;;;;;;;15.70;100.00;97427.47;6181956;23;20452;-71
2023/06/07 05:43:55;;;;;;;5.50;3.50;;;;;;;15.75;100.00;97424.72;6182090;23;20397;-71
2023/06/07 05:46:21;;;;;;;6.22;3.78;;;;;;;15.78;100.00;97424.97;6182215;23;20449;-71
2023/06/07 05:48:47;;;;;;;4.93;3.35;;;;;;;15.81;100.00;97426.25;6182109;23;20408;-71
2023/06/07 05:51:13;;;;;;;6.27;3.70;;;;;;;15.85;100.00;97428.09;6181918;23;20738;-71
2023/06/07 05:53:39;;;;;;;5.65;3.72;;;;;;;15.88;100.00;97424.84;6182586;23;20413;-71
2023/06/07 05:56:06;;;;;;;4.78;3.75;;;;;;;15.91;100.00;97428.03;6182188;23;20382;-71
2023/06/07 05:58:33;;;;;;;4.20;3.28;;;;;;;15.93;100.00;97420.56;6182719;23;20804;-71
2023/06/07 06:01:00;;;;;;;5.85;4.32;;;;;;;15.94;100.00;97425.59;6182561;23;20369;-70
2023/06/07 06:03:26;;;;;;;6.50;3.90;;;;;;;15.96;100.00;97422.63;6182421;23;20372;-70
2023/06/07 06:05:53;;;;;;;5.63;3.75;;;;;;;15.98;100.00;97423.16;6182209;23;20362;-70
2023/06/07 06:08:19;;;;;;;8.00;4.38;;;;;;;15.99;100.00;97427.41;6182552;23;20439;-70
2023/06/07 06:10:45;;;;;;;5.18;3.92;;;;;;;15.98;100.00;97425.81;6182506;23;20365;-70
2023/06/07 06:13:12;;;;;;;6.38;4.15;;;;;;;15.99;100.00;97424.75;6182218;23;20365;-70
2023/06/07 06:15:39;;;;;;;6.45;4.05;;;;;;;16.02;100.00;97424.16;6182495;23;20377;-70
2023/06/07 06:18:06;;;;;;;6.43;3.88;;;;;;;16.07;100.00;97424.13;6182515;23;20420;-70
2023/06/07 06:20:34;;;;;;;6.35;4.20;;;;;;;16.12;100.00;97424.06;6182219;23;20749;-71
2023/06/07 06:23:00;;;;;;;6.32;3.83;;;;;;;16.16;100.00;97428.53;6182333;23;20427;-70
2023/06/07 06:25:28;;;;;;;4.88;3.60;;;;;;;16.23;100.00;97425.53;6182318;23;20365;-70
2023/06/07 06:27:54;;;;;;;8.65;4.45;;;;;;;16.25;100.00;97426.81;6182188;23;20397;-70
2023/06/07 06:30:21;;;;;;;4.90;3.70;;;;;;;16.31;100.00;97416.09;6182299;23;20397;-70
2023/06/07 06:32:48;;;;;;;8.20;4.20;;;;;;;16.35;100.00;97420.56;6182312;23;20370;-70
2023/06/07 06:35:14;;;;;;;9.13;4.10;;;;;;;16.39;100.00;97420.78;6182031;23;20381;-70
2023/06/07 06:37:41;;;;;;;5.25;3.67;;;;;;;16.44;100.00;97426.84;6182383;23;20365;-70
2023/06/07 06:40:08;;;;;;;16.60;6.50;;;;;;;16.47;100.00;97423.59;6182390;23;20891;-71
2023/06/07 06:42:35;;;;;;;6.50;4.32;;;;;;;16.49;100.00;97428.66;6182005;23;20399;-71
2023/06/07 06:45:01;;;;;;;5.15;3.65;;;;;;;16.54;100.00;97429.38;6182026;23;20368;-70
2023/06/07 06:47:27;;;;;;;5.10;3.67;;;;;;;16.57;100.00;97433.38;6182295;23;20421;-70
2023/06/07 06:49:55;;;;;;;6.85;4.20;;;;;;;16.61;100.00;97423.72;6182051;23;20377;-71
2023/06/07 06:52:22;;;;;;;7.73;4.80;;;;;;;16.67;100.00;97430.59;6181905;23;20373;-70
2023/06/07 06:54:48;;;;;;;4.63;3.45;;;;;;;16.71;100.00;97441.47;6182010;23;20385;-69
2023/06/07 06:57:14;;;;;;;6.97;4.07;;;;;;;16.74;100.00;97433.69;6182863;23;20443;-71
2023/06/07 06:59:41;;;;;;;5.82;4.03;;;;;;;16.79;100.00;97435.50;6184307;23;20369;-70
2023/06/07 07:02:07;;;;;;;5.22;3.58;;;;;;;16.84;100.00;97438.09;6183427;23;20871;-69
2023/06/07 07:04:34;;;;;;;6.93;4.15;;;;;;;16.87;100.00;97434.84;6183974;23;20377;-69
2023/06/07 07:07:02;;;;;;;5.28;3.70;;;;;;;16.91;100.00;97441.22;6183948;23;20925;-69
2023/06/07 07:09:30;;;;;;;7.45;5.03;;;;;;;16.91;100.00;97442.00;6184401;23;20379;-69
2023/06/07 07:11:56;;;;;;;10.80;4.70;;;;;;;16.96;100.00;97433.09;6183547;23;20369;-68
2023/06/07 07:14:22;;;;;;;8.15;3.80;;;;;;;17.01;100.00;97433.03;6184228;23;20377;-69
2023/06/07 07:16:48;;;;;;;5.38;3.78;;;;;;;17.06;100.00;97437.50;6183445;23;20813;-69
2023/06/07 07:19:15;;;;;;;7.23;4.80;;;;;;;17.07;100.00;97439.88;6184181;23;20376;-69
2023/06/07 07:21:43;;;;;;;9.00;4.95;;;;;;;17.11;100.00;97438.22;6183962;23;20675;-69
2023/06/07 07:24:10;;;;;;;4.53;3.40;;;;;;;17.16;100.00;97435.47;6183881;23;20428;-69
2023/06/07 07:26:39;;;;;;;8.27;3.70;;;;;;;17.24;100.00;97434.00;6183314;23;20365;-70
2023/06/07 07:29:05;;;;;;;6.20;4.13;;;;;;;17.32;100.00;97430.66;6183997;23;20365;-70
2023/06/07 07:31:33;;;;;;;5.93;3.33;;;;;;;17.38;100.00;97434.81;6181037;23;20379;-69
2023/06/07 07:34:00;;;;;;;4.07;3.15;;;;;;;17.42;100.00;97430.50;6183842;23;20373;-69
2023/06/07 07:36:27;;;;;;;4.07;3.00;;;;;;;17.48;100.00;97432.00;6183298;23;20435;-69
2023/06/07 07:38:54;;;;;;;3.97;2.80;;;;;;;17.52;100.00;97432.19;6183596;23;20373;-70
2023/06/07 07:41:21;;;;;;;2.30;2.10;;;;;;;17.58;100.00;97439.06;6183107;23;20423;-70
2023/06/07 07:43:48;;;;;;;3.45;2.78;;;;;;;17.64;100.00;97424.53;6154578;23;20423;-70
2023/06/07 07:46:14;;;;;;;8.10;3.58;;;;;;;17.63;100.00;97434.44;6181528;23;20370;-70
2023/06/07 07:48:40;;;;;;;4.47;3.10;;;;;;;17.64;100.00;97437.91;6182347;23;20427;-70
2023/06/07 07:51:06;;;;;;;3.40;2.67;;;;;;;17.68;100.00;97430.88;6182792;23;20373;-70
2023/06/07 07:53:33;;;;;;;3.83;2.70;;;;;;;17.74;100.00;97427.03;6182941;23;20818;-70
2023/06/07 07:56:00;;;;;;;4.50;2.85;;;;;;;17.82;100.00;97436.25;6182691;23;20435;-70
2023/06/07 07:58:27;;;;;;;3.63;2.53;;;;;;;17.90;100.00;97430.19;6183393;23;20710;-70
2023/06/07 08:00:53;;;;;;;4.07;2.22;;;;;;;18.00;100.00;97430.81;6183340;23;20369;-70
2023/06/07 08:03:21;;;;;;;3.53;2.33;;;;;;;18.09;99.83;97433.59;6183236;23;20840;-70
2023/06/07 08:05:47;;;;;;;3.35;2.03;;;;;;;18.21;99.07;97436.53;6183131;23;20852;-70
2023/06/07 08:08:15;;;;;;;4.63;2.27;;;;;;;18.32;97.84;97432.59;6183039;23;20400;-70
2023/06/07 08:10:42;;;;;;;2.42;1.92;;;;;;;18.43;96.91;97430.47;6183351;23;20798;-70
2023/06/07 08:13:08;;;;;;;3.55;2.10;;;;;;;18.54;96.57;97439.91;6183062;23;20369;-71
2023/06/07 08:15:36;;;;;;;2.60;2.08;;;;;;;18.66;95.75;97429.47;6183073;23;20421;-71
2023/06/07 08:18:02;;;;;;;5.18;2.95;;;;;;;18.75;92.82;97429.53;6183259;23;20421;-70
2023/06/07 08:20:28;;;;;;;2.55;2.00;;;;;;;18.85;92.45;97427.44;6166503;23;20383;-73
2023/06/07 08:22:54;;;;;;;7.57;2.50;;;;;;;18.95;92.31;97426.38;6169401;23;20927;-73
2023/06/07 08:25:21;;;;;;;3.13;2.30;;;;;;;19.11;92.01;97424.16;6182107;23;20389;-73
2023/06/07 08:27:47;;;;;;;3.50;2.15;;;;;;;19.23;91.32;97422.53;6182776;23;20392;-73
2023/06/07 08:30:14;;;;;;;3.40;2.58;;;;;;;19.36;87.91;97426.22;6183411;23;20372;-73
2023/06/07 08:32:43;;;;;;;4.07;2.28;;;;;;;19.54;84.69;97421.78;6183026;23;20369;-73
2023/06/07 08:35:10;;;;;;;4.43;2.30;;;;;;;19.58;82.06;97415.47;6182871;23;20409;-73
2023/06/07 08:37:37;;;;;;;3.75;2.00;;;;;;;19.58;82.64;97420.06;6183311;23;20373;-73
2023/06/07 08:40:05;;;;;;;4.57;2.10;;;;;;;19.54;83.04;97419.09;6182380;23;20404;-73
2023/06/07 08:42:32;;;;;;;4.63;2.03;;;;;;;19.55;83.78;97426.84;6182465;23;20369;-73
2023/06/07 08:45:00;;;;;;;2.67;1.83;;;;;;;19.65;83.85;97425.78;6181830;23;20392;-73
2023/06/07 08:47:28;;;;;;;2.00;1.80;;;;;;;19.73;81.84;97422.34;6183265;23;20365;-73
2023/06/07 08:49:57;;;;;;;4.80;1.83;;;;;;;19.86;81.38;97423.34;6183102;23;20748;-73
2023/06/07 08:52:23;;;;;;;2.60;1.80;;;;;;;20.04;81.38;97431.19;6183148;23;20440;-72
2023/06/07 08:54:52;;;;;;;2.03;1.80;;;;;;;20.23;80.72;97422.84;6182505;23;20388;-72
2023/06/07 08:57:19;;;;;;;3.38;1.67;;;;;;;20.51;78.38;97422.63;6182567;23;20448;-72
2023/06/07 08:59:45;;;;;;;2.17;1.80;;;;;;;20.61;74.87;97431.19;6182674;23;20395;-72
2023/06/07 09:02:12;;;;;;;6.28;2.40;;;;;;;20.49;72.81;97422.94;6180539;23;20459;-72
2023/06/07 09:04:40;;;;;;;3.15;2.30;;;;;;;20.39;71.57;97424.03;6181499;23;20500;-72
2023/06/07 09:07:07;;;;;;;4.30;2.00;;;;;;;20.53;72.68;97429.28;6180474;23;20374;-72
2023/06/07 09:09:34;;;;;;;3.40;2.38;;;;;;;20.58;71.66;97434.53;6183046;23;20766;-73
2023/06/07 09:12:01;;;;;;;2.72;2.20;;;;;;;20.88;69.67;97426.63;6181380;23;20369;-72
2023/06/07 09:14:28;;;;;;;2.78;2.00;;;;;;;21.07;68.12;97424.41;6182812;23;20383;-72
2023/06/07 09:16:55;;;;;;;3.35;2.15;;;;;;;21.05;68.61;97430.09;6182622;23;20385;-73
2023/06/07 09:19:32;;;;;;;2.80;2.00;;;;;;;21.14;70.80;97430.09;6182895;23;20687;-72
2023/06/07 09:21:59;;;;;;;2.30;1.88;;;;;;;21.34;71.38;97431.38;6182674;23;20357;-72
2023/06/07 09:24:28;;;;;;;2.75;1.90;;;;;;;21.48;69.57;97413.94;6182866;23;20447;-72
2023/06/07 09:26:55;;;;;;;6.78;2.03;;;;;;;21.55;69.88;97426.91;6182497;23;20397;-73
2023/06/07 09:29:22;;;;;;;1.98;1.70;;;;;;;21.50;68.13;97427.84;6182774;23;20778;-73
2023/06/07 09:31:49;;;;;;;2.20;1.70;;;;;;;21.55;68.42;97424.22;6182656;23;20361;-73
2023/06/07 09:34:20;;;;;;;2.83;1.87;;;;;;;21.53;68.42;97423.72;6183066;23;20404;-72
2023/06/07 09:36:50;;;;;;;1.73;1.42;;;;;;;21.68;68.86;97425.91;6182417;23;20867;-72
2023/06/07 09:39:21;;;;;;;1.83;1.33;;;;;;;21.80;67.38;97426.03;6182666;23;20369;-72
2023/06/07 09:41:48;;;;;;;2.40;1.80;;;;;;;21.89;67.10;97421.41;6182339;23;20857;-73
2023/06/07 09:44:21;;;;;;;1.90;1.55;;;;;;;22.12;68.44;97421.16;6182744;23;20404;-73
2023/06/07 09:46:48;;;;;;;2.13;1.77;;;;;;;22.21;67.86;97416.53;6182261;23;20357;-72
2023/06/07 09:49:22;;;;;;;2.95;1.90;;;;;;;22.16;67.85;97414.03;6182655;23;20365;-72
2023/06/07 09:51:51;;;;;;;2.65;1.38;;;;;;;22.03;68.55;97417.75;6182659;23;20369;-73
2023/06/07 09:54:17;;;;;;;3.30;1.50;;;;;;;21.86;68.55;97419.38;6182616;23;20427;-73
2023/06/07 09:56:43;;;;;;;3.47;1.60;;;;;;;21.65;69.18;97423.88;6182280;23;20734;-73
2023/06/07 09:59:14;;;;;;;2.00;1.67;;;;;;;21.58;69.53;97420.84;6182680;23;20368;-73
2023/06/07 10:01:47;;;;;;;1.67;1.58;;;;;;;21.61;69.17;97418.31;6182474;23;20442;-72
2023/06/07 10:04:14;;;;;;;2.53;1.50;;;;;;;21.69;67.36;97408.63;6182963;23;20864;-74
2023/06/07 10:06:42;;;;;;;2.97;1.90;;;;;;;21.76;67.48;97408.94;6182737;23;20367;-73
2023/06/07 10:09:09;;;;;;;2.53;1.60;;;;;;;21.66;67.58;97416.56;6182774;23;20834;-73
2023/06/07 10:11:37;;;;;;;2.60;1.52;;;;;;;21.61;68.69;97412.94;6182574;23;20370;-73
2023/06/07 10:14:06;;;;;;;2.15;1.40;;;;;;;21.70;69.27;97415.63;6182538;23;20706;-73
2023/06/07 10:16:36;;;;;;;3.78;1.85;;;;;;;21.88;69.13;97405.53;6182115;23;20863;-72
2023/06/07 10:19:11;;;;;;;2.45;1.48;;;;;;;22.17;70.74;97404.81;6182496;23;20373;-73
2023/06/07 10:21:40;;;;;;;2.45;1.45;;;;;;;22.55;69.84;97408.25;6182910;23;20377;-73
2023/06/07 10:24:11;;;;;;;1.90;1.70;;;;;;;22.85;66.45;97400.91;6182511;23;20397;-73
2023/06/07 10:26:45;;;;;;;2.40;1.60;;;;;;;22.96;63.76;97401.28;6182209;23;20373;-73
2023/06/07 10:29:17;;;;;;;4.88;1.70;;;;;;;22.91;61.93;97399.59;6182537;23;20756;-73
2023/06/07 10:31:51;;;;;;;2.22;1.90;;;;;;;22.79;63.80;97402.22;6182708;23;20686;-73
2023/06/07 10:34:20;;;;;;;6.90;1.90;;;;;;;22.67;63.40;97402.91;6184680;23;20464;-72
2023/06/07 10:36:46;;;;;;;1.73;1.50;;;;;;;22.76;63.75;97392.09;6184116;23;20472;-73
2023/06/07 10:39:14;;;;;;;1.98;1.75;;;;;;;22.92;59.45;97394.97;6184399;23;20365;-73
2023/06/07 10:41:41;;;;;;;4.25;1.90;;;;;;;22.75;60.67;97390.50;6184452;23;20373;-73
2023/06/07 10:44:09;;;;;;;1.90;1.60;;;;;;;22.63;61.61;97393.88;6184408;23;20372;-73
2023/06/07 10:46:35;;;;;;;2.35;1.55;;;;;;;22.81;62.43;97389.19;6184210;23;20420;-73
2023/06/07 10:49:04;;;;;;;3.25;1.90;;;;;;;23.22;64.23;97392.97;6184721;23;20737;-73
2023/06/07 10:52:04;;;;;;;1.73;1.50;;;;;;;23.63;62.66;97387.47;6184439;23;20397;-73
2023/06/07 10:54:31;;;;;;;1.70;1.60;;;;;;;24.00;61.16;97382.88;6184311;23;20848;-73
2023/06/07 10:56:59;;;;;;;3.33;1.90;;;;;;;24.17;55.45;97385.34;6183876;23;20452;-71
2023/06/07 10:59:26;;;;;;;3.43;1.83;;;;;;;24.25;53.80;97381.00;6184228;23;20814;-71
2023/06/07 11:01:54;;;;;;;2.30;1.63;;;;;;;24.20;55.25;97381.22;6184134;23;20373;-71
2023/06/07 11:04:53;;;;;;;3.00;1.70;;;;;;;24.11;57.25;97378.59;6184564;23;20764;-72
2023/06/07 11:07:22;;;;;;;6.43;1.60;;;;;;;24.12;58.61;97379.41;6184032;23;20372;-72
2023/06/07 11:09:49;;;;;;;2.17;1.65;;;;;;;24.14;58.70;97380.63;6184154;23;20373;-72
2023/06/07 11:12:51;;;;;;;2.07;1.40;;;;;;;24.21;58.95;97375.47;6184143;23;20369;-72
2023/06/07 11:15:20;;;;;;;2.15;1.45;;;;;;;24.32;59.13;97375.00;6180402;23;20389;-72
2023/06/07 11:17:51;;;;;;;2.33;1.50;;;;;;;24.47;58.48;97377.00;6184091;23;20460;-72
2023/06/07 11:23:21;;;;;;;1.63;1.40;;;;;;;24.85;56.65;97371.94;5087935;28;20368;-73
2023/06/07 11:25:48;;;;;;;1.10;1.00;;;;;;;25.05;56.92;97371.00;5088002;28;20399;-72
2023/06/07 11:28:16;;;;;;;4.15;1.60;;;;;;;25.21;55.28;97368.31;5087971;28;20403;-73
2023/06/07 11:30:45;;;;;;;3.00;1.38;;;;;;;25.37;54.97;97373.78;5088011;28;20470;-73
2023/06/07 11:33:15;;;;;;;5.65;1.80;;;;;;;25.48;53.84;97363.22;5087928;28;20974;-73